sensor_id;sensor_type;location;lat;lon;timestamp;P1;durP1;ratioP1;P2;durP2;ratioP2
20306;SDS011;10312;52.434;13.206;2022-11-15T00:00:22;31.35;;;21.00;;
20306;SDS011;10312;52.434;13.206;2022-11-15T00:03:07;34.25;;;21.23;;
20306;SDS011;10312;52.434;13.206;2022-11-15T00:05:52;33.25;;;20.90;;
20306;SDS011;10312;52.434;13.206;2022-11-15T00:08:38;35.75;;;21.42;;
20306;SDS011;10312;52.434;13.206;2022-11-15T00:11:23;35.95;;;22.17;;
20306;SDS011;10312;52.434;13.206;2022-11-15T00:14:08;33.88;;;21.10;;
20306;SDS011;10312;52.434;13.206;2022-11-15T00:16:54;33.38;;;20.95;;
20306;SDS011;10312;52.434;13.206;2022-11-15T00:19:39;34.45;;;21.65;;
20306;SDS011;10312;52.434;13.206;2022-11-15T00:22:24;34.22;;;22.08;;
20306;SDS011;10312;52.434;13.206;2022-11-15T00:25:10;35.53;;;21.38;;
20306;SDS011;10312;52.434;13.206;2022-11-15T00:27:56;36.03;;;21.92;;
20306;SDS011;10312;52.434;13.206;2022-11-15T00:30:42;35.75;;;21.98;;
20306;SDS011;10312;52.434;13.206;2022-11-15T00:33:27;33.80;;;20.67;;
20306;SDS011;10312;52.434;13.206;2022-11-15T00:36:13;36.90;;;21.20;;
20306;SDS011;10312;52.434;13.206;2022-11-15T00:38:59;35.90;;;22.25;;
20306;SDS011;10312;52.434;13.206;2022-11-15T00:41:44;37.30;;;22.73;;
20306;SDS011;10312;52.434;13.206;2022-11-15T00:44:29;35.45;;;22.67;;
20306;SDS011;10312;52.434;13.206;2022-11-15T00:47:14;35.30;;;22.05;;
20306;SDS011;10312;52.434;13.206;2022-11-15T00:50:00;36.85;;;22.10;;
20306;SDS011;10312;52.434;13.206;2022-11-15T00:52:45;37.05;;;22.95;;
20306;SDS011;10312;52.434;13.206;2022-11-15T00:55:30;36.42;;;22.50;;
20306;SDS011;10312;52.434;13.206;2022-11-15T00:58:16;33.22;;;21.88;;
20306;SDS011;10312;52.434;13.206;2022-11-15T01:01:05;35.78;;;22.45;;
20306;SDS011;10312;52.434;13.206;2022-11-15T01:03:57;35.25;;;22.30;;
20306;SDS011;10312;52.434;13.206;2022-11-15T01:06:45;38.80;;;23.33;;
20306;SDS011;10312;52.434;13.206;2022-11-15T01:09:30;35.65;;;22.48;;
20306;SDS011;10312;52.434;13.206;2022-11-15T01:12:15;37.90;;;23.08;;
20306;SDS011;10312;52.434;13.206;2022-11-15T01:15:01;35.75;;;22.55;;
20306;SDS011;10312;52.434;13.206;2022-11-15T01:17:46;37.28;;;23.63;;
20306;SDS011;10312;52.434;13.206;2022-11-15T01:20:32;37.15;;;22.50;;
20306;SDS011;10312;52.434;13.206;2022-11-15T01:23:17;38.67;;;23.00;;
20306;SDS011;10312;52.434;13.206;2022-11-15T01:26:03;35.63;;;21.92;;
20306;SDS011;10312;52.434;13.206;2022-11-15T01:28:50;38.22;;;22.95;;
20306;SDS011;10312;52.434;13.206;2022-11-15T01:31:35;35.88;;;22.90;;
20306;SDS011;10312;52.434;13.206;2022-11-15T01:34:21;34.08;;;21.42;;
20306;SDS011;10312;52.434;13.206;2022-11-15T01:37:06;37.08;;;22.95;;
20306;SDS011;10312;52.434;13.206;2022-11-15T01:39:51;40.25;;;22.65;;
20306;SDS011;10312;52.434;13.206;2022-11-15T01:42:37;37.42;;;23.17;;
20306;SDS011;10312;52.434;13.206;2022-11-15T01:45:22;37.80;;;22.33;;
20306;SDS011;10312;52.434;13.206;2022-11-15T01:48:08;35.90;;;22.42;;
20306;SDS011;10312;52.434;13.206;2022-11-15T01:50:55;38.40;;;24.25;;
20306;SDS011;10312;52.434;13.206;2022-11-15T01:53:40;41.30;;;23.75;;
20306;SDS011;10312;52.434;13.206;2022-11-15T01:56:28;39.10;;;22.30;;
20306;SDS011;10312;52.434;13.206;2022-11-15T01:59:15;37.17;;;22.52;;
20306;SDS011;10312;52.434;13.206;2022-11-15T02:02:00;38.88;;;23.30;;
20306;SDS011;10312;52.434;13.206;2022-11-15T02:04:46;39.30;;;23.73;;
20306;SDS011;10312;52.434;13.206;2022-11-15T02:07:32;40.33;;;22.65;;
20306;SDS011;10312;52.434;13.206;2022-11-15T02:10:20;38.60;;;23.25;;
20306;SDS011;10312;52.434;13.206;2022-11-15T02:13:07;39.60;;;24.10;;
20306;SDS011;10312;52.434;13.206;2022-11-15T02:37:32;38.53;;;23.50;;
20306;SDS011;10312;52.434;13.206;2022-11-15T02:46:49;36.92;;;22.88;;
20306;SDS011;10312;52.434;13.206;2022-11-15T02:49:57;38.15;;;22.80;;
20306;SDS011;10312;52.434;13.206;2022-11-15T02:52:48;36.95;;;23.48;;
20306;SDS011;10312;52.434;13.206;2022-11-15T02:55:34;36.88;;;22.23;;
20306;SDS011;10312;52.434;13.206;2022-11-15T03:04:22;36.30;;;21.60;;
20306;SDS011;10312;52.434;13.206;2022-11-15T03:07:36;36.03;;;22.52;;
20306;SDS011;10312;52.434;13.206;2022-11-15T03:10:36;43.17;;;24.02;;
20306;SDS011;10312;52.434;13.206;2022-11-15T03:17:06;36.58;;;20.90;;
20306;SDS011;10312;52.434;13.206;2022-11-15T03:19:56;36.40;;;21.70;;
20306;SDS011;10312;52.434;13.206;2022-11-15T03:22:44;37.40;;;21.73;;
20306;SDS011;10312;52.434;13.206;2022-11-15T03:25:32;37.33;;;21.05;;
20306;SDS011;10312;52.434;13.206;2022-11-15T03:28:20;38.80;;;23.23;;
20306;SDS011;10312;52.434;13.206;2022-11-15T03:31:09;35.28;;;21.10;;
20306;SDS011;10312;52.434;13.206;2022-11-15T03:34:55;38.90;;;22.45;;
20306;SDS011;10312;52.434;13.206;2022-11-15T03:41:01;37.95;;;21.80;;
20306;SDS011;10312;52.434;13.206;2022-11-15T03:43:53;37.08;;;21.67;;
20306;SDS011;10312;52.434;13.206;2022-11-15T03:46:59;40.08;;;23.73;;
20306;SDS011;10312;52.434;13.206;2022-11-15T03:49:51;35.15;;;21.63;;
20306;SDS011;10312;52.434;13.206;2022-11-15T03:52:38;37.58;;;22.17;;
20306;SDS011;10312;52.434;13.206;2022-11-15T03:55:24;35.53;;;21.45;;
20306;SDS011;10312;52.434;13.206;2022-11-15T03:58:10;34.90;;;21.77;;
20306;SDS011;10312;52.434;13.206;2022-11-15T04:00:55;34.42;;;21.40;;
20306;SDS011;10312;52.434;13.206;2022-11-15T04:03:41;37.10;;;22.05;;
20306;SDS011;10312;52.434;13.206;2022-11-15T04:06:26;34.90;;;21.70;;
20306;SDS011;10312;52.434;13.206;2022-11-15T04:09:11;39.20;;;22.45;;
20306;SDS011;10312;52.434;13.206;2022-11-15T04:11:57;37.20;;;21.70;;
20306;SDS011;10312;52.434;13.206;2022-11-15T04:14:42;38.63;;;22.08;;
20306;SDS011;10312;52.434;13.206;2022-11-15T04:17:55;36.80;;;21.85;;
20306;SDS011;10312;52.434;13.206;2022-11-15T04:20:41;40.08;;;22.92;;
20306;SDS011;10312;52.434;13.206;2022-11-15T04:23:45;37.53;;;21.92;;
20306;SDS011;10312;52.434;13.206;2022-11-15T04:26:50;34.75;;;21.38;;
20306;SDS011;10312;52.434;13.206;2022-11-15T04:29:35;38.83;;;22.70;;
20306;SDS011;10312;52.434;13.206;2022-11-15T04:32:21;36.55;;;23.25;;
20306;SDS011;10312;52.434;13.206;2022-11-15T04:35:06;36.00;;;22.08;;
20306;SDS011;10312;52.434;13.206;2022-11-15T04:37:52;36.28;;;21.80;;
20306;SDS011;10312;52.434;13.206;2022-11-15T04:40:37;37.33;;;22.33;;
20306;SDS011;10312;52.434;13.206;2022-11-15T04:43:22;35.88;;;22.45;;
20306;SDS011;10312;52.434;13.206;2022-11-15T04:46:08;37.55;;;22.58;;
20306;SDS011;10312;52.434;13.206;2022-11-15T04:48:53;36.13;;;22.02;;
20306;SDS011;10312;52.434;13.206;2022-11-15T04:51:43;36.58;;;22.33;;
20306;SDS011;10312;52.434;13.206;2022-11-15T04:54:31;37.03;;;21.27;;
20306;SDS011;10312;52.434;13.206;2022-11-15T04:57:16;43.47;;;26.27;;
20306;SDS011;10312;52.434;13.206;2022-11-15T05:00:03;47.78;;;31.60;;
20306;SDS011;10312;52.434;13.206;2022-11-15T05:02:50;43.08;;;27.05;;
20306;SDS011;10312;52.434;13.206;2022-11-15T05:05:54;38.75;;;24.15;;
20306;SDS011;10312;52.434;13.206;2022-11-15T05:08:40;39.17;;;23.58;;
20306;SDS011;10312;52.434;13.206;2022-11-15T05:11:25;37.35;;;22.80;;
20306;SDS011;10312;52.434;13.206;2022-11-15T05:14:12;36.88;;;23.27;;
20306;SDS011;10312;52.434;13.206;2022-11-15T05:16:57;38.58;;;24.65;;
20306;SDS011;10312;52.434;13.206;2022-11-15T05:19:43;38.85;;;23.80;;
20306;SDS011;10312;52.434;13.206;2022-11-15T05:22:29;38.67;;;23.50;;
20306;SDS011;10312;52.434;13.206;2022-11-15T05:25:15;34.90;;;22.42;;
20306;SDS011;10312;52.434;13.206;2022-11-15T05:28:00;34.17;;;21.80;;
20306;SDS011;10312;52.434;13.206;2022-11-15T05:30:46;38.33;;;23.50;;
20306;SDS011;10312;52.434;13.206;2022-11-15T05:33:31;37.30;;;22.27;;
20306;SDS011;10312;52.434;13.206;2022-11-15T05:39:20;39.25;;;23.23;;
20306;SDS011;10312;52.434;13.206;2022-11-15T05:42:12;35.35;;;21.80;;
20306;SDS011;10312;52.434;13.206;2022-11-15T05:44:58;36.70;;;22.23;;
20306;SDS011;10312;52.434;13.206;2022-11-15T05:47:44;36.33;;;21.77;;
20306;SDS011;10312;52.434;13.206;2022-11-15T05:50:30;34.75;;;21.85;;
20306;SDS011;10312;52.434;13.206;2022-11-15T05:53:16;34.13;;;21.90;;
20306;SDS011;10312;52.434;13.206;2022-11-15T05:56:05;38.10;;;21.13;;
20306;SDS011;10312;52.434;13.206;2022-11-15T05:58:52;35.70;;;22.05;;
20306;SDS011;10312;52.434;13.206;2022-11-15T06:01:43;34.15;;;21.17;;
20306;SDS011;10312;52.434;13.206;2022-11-15T06:04:28;33.75;;;21.15;;
20306;SDS011;10312;52.434;13.206;2022-11-15T06:07:14;41.22;;;21.30;;
20306;SDS011;10312;52.434;13.206;2022-11-15T06:09:59;36.30;;;21.83;;
20306;SDS011;10312;52.434;13.206;2022-11-15T06:12:44;35.58;;;21.20;;
20306;SDS011;10312;52.434;13.206;2022-11-15T06:15:31;34.20;;;21.25;;
20306;SDS011;10312;52.434;13.206;2022-11-15T06:18:17;38.22;;;23.30;;
20306;SDS011;10312;52.434;13.206;2022-11-15T06:21:03;37.40;;;21.83;;
20306;SDS011;10312;52.434;13.206;2022-11-15T06:23:49;35.38;;;21.85;;
20306;SDS011;10312;52.434;13.206;2022-11-15T06:26:35;37.15;;;22.30;;
20306;SDS011;10312;52.434;13.206;2022-11-15T06:29:20;36.17;;;20.73;;
20306;SDS011;10312;52.434;13.206;2022-11-15T06:32:05;36.75;;;22.25;;
20306;SDS011;10312;52.434;13.206;2022-11-15T06:34:52;36.38;;;22.35;;
20306;SDS011;10312;52.434;13.206;2022-11-15T06:37:37;36.63;;;21.52;;
20306;SDS011;10312;52.434;13.206;2022-11-15T06:40:22;34.90;;;20.92;;
20306;SDS011;10312;52.434;13.206;2022-11-15T06:43:08;34.00;;;21.17;;
20306;SDS011;10312;52.434;13.206;2022-11-15T06:45:53;35.55;;;22.10;;
20306;SDS011;10312;52.434;13.206;2022-11-15T06:48:39;36.40;;;21.02;;
20306;SDS011;10312;52.434;13.206;2022-11-15T06:51:24;33.83;;;19.92;;
20306;SDS011;10312;52.434;13.206;2022-11-15T06:54:10;34.25;;;20.95;;
20306;SDS011;10312;52.434;13.206;2022-11-15T06:56:55;34.65;;;20.42;;
20306;SDS011;10312;52.434;13.206;2022-11-15T06:59:41;33.42;;;20.65;;
20306;SDS011;10312;52.434;13.206;2022-11-15T07:02:26;32.75;;;20.73;;
20306;SDS011;10312;52.434;13.206;2022-11-15T07:05:12;37.78;;;22.13;;
20306;SDS011;10312;52.434;13.206;2022-11-15T07:07:58;35.10;;;21.20;;
20306;SDS011;10312;52.434;13.206;2022-11-15T07:10:44;33.53;;;21.33;;
20306;SDS011;10312;52.434;13.206;2022-11-15T07:13:30;34.47;;;20.80;;
20306;SDS011;10312;52.434;13.206;2022-11-15T07:16:18;32.90;;;20.52;;
20306;SDS011;10312;52.434;13.206;2022-11-15T07:19:04;35.03;;;21.15;;
20306;SDS011;10312;52.434;13.206;2022-11-15T07:21:49;36.42;;;20.83;;
20306;SDS011;10312;52.434;13.206;2022-11-15T07:24:35;39.38;;;21.73;;
20306;SDS011;10312;52.434;13.206;2022-11-15T07:27:20;34.97;;;22.08;;
20306;SDS011;10312;52.434;13.206;2022-11-15T07:30:06;45.03;;;24.92;;
20306;SDS011;10312;52.434;13.206;2022-11-15T07:32:55;41.75;;;24.80;;
20306;SDS011;10312;52.434;13.206;2022-11-15T07:35:42;38.30;;;22.50;;
20306;SDS011;10312;52.434;13.206;2022-11-15T07:38:35;41.50;;;23.67;;
20306;SDS011;10312;52.434;13.206;2022-11-15T07:41:26;41.28;;;23.50;;
20306;SDS011;10312;52.434;13.206;2022-11-15T07:44:12;38.83;;;22.67;;
20306;SDS011;10312;52.434;13.206;2022-11-15T07:46:59;42.08;;;23.70;;
20306;SDS011;10312;52.434;13.206;2022-11-15T07:49:45;39.30;;;23.20;;
20306;SDS011;10312;52.434;13.206;2022-11-15T07:52:31;40.38;;;23.48;;
20306;SDS011;10312;52.434;13.206;2022-11-15T07:55:17;39.08;;;23.25;;
20306;SDS011;10312;52.434;13.206;2022-11-15T07:58:06;38.53;;;22.52;;
20306;SDS011;10312;52.434;13.206;2022-11-15T08:00:54;34.17;;;20.92;;
20306;SDS011;10312;52.434;13.206;2022-11-15T08:03:39;37.17;;;22.58;;
20306;SDS011;10312;52.434;13.206;2022-11-15T08:06:25;41.50;;;23.17;;
20306;SDS011;10312;52.434;13.206;2022-11-15T08:09:10;43.67;;;24.38;;
20306;SDS011;10312;52.434;13.206;2022-11-15T08:11:55;43.10;;;24.73;;
20306;SDS011;10312;52.434;13.206;2022-11-15T08:14:42;43.25;;;24.80;;
20306;SDS011;10312;52.434;13.206;2022-11-15T08:17:27;40.15;;;24.77;;
20306;SDS011;10312;52.434;13.206;2022-11-15T08:20:17;43.20;;;25.30;;
20306;SDS011;10312;52.434;13.206;2022-11-15T08:23:02;41.22;;;25.02;;
20306;SDS011;10312;52.434;13.206;2022-11-15T08:25:49;44.38;;;24.95;;
20306;SDS011;10312;52.434;13.206;2022-11-15T08:28:34;40.83;;;25.17;;
20306;SDS011;10312;52.434;13.206;2022-11-15T08:31:19;41.60;;;24.92;;
20306;SDS011;10312;52.434;13.206;2022-11-15T08:34:06;43.50;;;25.00;;
20306;SDS011;10312;52.434;13.206;2022-11-15T08:36:51;41.28;;;23.27;;
20306;SDS011;10312;52.434;13.206;2022-11-15T08:39:36;39.40;;;23.50;;
20306;SDS011;10312;52.434;13.206;2022-11-15T08:42:22;38.80;;;24.83;;
20306;SDS011;10312;52.434;13.206;2022-11-15T08:45:08;40.00;;;22.73;;
20306;SDS011;10312;52.434;13.206;2022-11-15T08:47:54;40.22;;;23.55;;
20306;SDS011;10312;52.434;13.206;2022-11-15T08:50:40;36.88;;;22.60;;
20306;SDS011;10312;52.434;13.206;2022-11-15T08:53:25;38.75;;;22.70;;
20306;SDS011;10312;52.434;13.206;2022-11-15T08:56:11;36.60;;;21.58;;
20306;SDS011;10312;52.434;13.206;2022-11-15T08:58:58;36.92;;;21.98;;
20306;SDS011;10312;52.434;13.206;2022-11-15T09:01:43;32.25;;;20.67;;
20306;SDS011;10312;52.434;13.206;2022-11-15T09:04:29;31.40;;;18.92;;
20306;SDS011;10312;52.434;13.206;2022-11-15T09:07:14;33.05;;;19.33;;
20306;SDS011;10312;52.434;13.206;2022-11-15T09:10:00;29.80;;;17.95;;
20306;SDS011;10312;52.434;13.206;2022-11-15T09:12:45;29.13;;;18.77;;
20306;SDS011;10312;52.434;13.206;2022-11-15T09:15:33;26.85;;;17.58;;
20306;SDS011;10312;52.434;13.206;2022-11-15T09:18:18;28.67;;;17.58;;
20306;SDS011;10312;52.434;13.206;2022-11-15T09:21:06;25.90;;;16.73;;
20306;SDS011;10312;52.434;13.206;2022-11-15T09:23:51;25.92;;;16.55;;
20306;SDS011;10312;52.434;13.206;2022-11-15T09:26:37;24.55;;;15.63;;
20306;SDS011;10312;52.434;13.206;2022-11-15T09:29:23;22.02;;;14.80;;
20306;SDS011;10312;52.434;13.206;2022-11-15T09:32:08;23.70;;;15.77;;
20306;SDS011;10312;52.434;13.206;2022-11-15T09:34:54;24.65;;;16.10;;
20306;SDS011;10312;52.434;13.206;2022-11-15T09:37:39;24.65;;;16.13;;
20306;SDS011;10312;52.434;13.206;2022-11-15T09:40:24;25.60;;;16.60;;
20306;SDS011;10312;52.434;13.206;2022-11-15T09:46:37;20.88;;;15.18;;
20306;SDS011;10312;52.434;13.206;2022-11-15T09:49:33;24.55;;;15.10;;
20306;SDS011;10312;52.434;13.206;2022-11-15T09:52:23;22.85;;;15.60;;
20306;SDS011;10312;52.434;13.206;2022-11-15T09:54:50;22.65;;;15.10;;
20306;SDS011;10312;52.434;13.206;2022-11-15T09:57:31;25.15;;;16.65;;
20306;SDS011;10312;52.434;13.206;2022-11-15T10:05:52;22.17;;;14.77;;
20306;SDS011;10312;52.434;13.206;2022-11-15T10:11:31;22.25;;;14.80;;
20306;SDS011;10312;52.434;13.206;2022-11-15T10:14:22;22.75;;;15.00;;
20306;SDS011;10312;52.434;13.206;2022-11-15T10:25:18;19.63;;;13.23;;
20306;SDS011;10312;52.434;13.206;2022-11-15T10:27:56;20.13;;;13.52;;
20306;SDS011;10312;52.434;13.206;2022-11-15T10:30:35;16.98;;;12.50;;
20306;SDS011;10312;52.434;13.206;2022-11-15T10:51:49;18.40;;;13.40;;
20306;SDS011;10312;52.434;13.206;2022-11-15T10:54:23;18.80;;;12.45;;
20306;SDS011;10312;52.434;13.206;2022-11-15T10:56:54;20.58;;;12.45;;
20306;SDS011;10312;52.434;13.206;2022-11-15T10:59:32;16.63;;;11.98;;
20306;SDS011;10312;52.434;13.206;2022-11-15T11:02:23;15.80;;;11.02;;
20306;SDS011;10312;52.434;13.206;2022-11-15T11:04:51;17.88;;;11.55;;
20306;SDS011;10312;52.434;13.206;2022-11-15T11:07:22;15.73;;;11.00;;
20306;SDS011;10312;52.434;13.206;2022-11-15T11:10:02;14.35;;;8.82;;
20306;SDS011;10312;52.434;13.206;2022-11-15T11:12:51;14.52;;;10.45;;
20306;SDS011;10312;52.434;13.206;2022-11-15T11:15:18;17.05;;;10.18;;
20306;SDS011;10312;52.434;13.206;2022-11-15T11:20:49;12.48;;;8.73;;
20306;SDS011;10312;52.434;13.206;2022-11-15T11:25:53;17.10;;;9.25;;
20306;SDS011;10312;52.434;13.206;2022-11-15T11:31:28;13.25;;;9.45;;
20306;SDS011;10312;52.434;13.206;2022-11-15T11:36:48;15.27;;;9.88;;
20306;SDS011;10312;52.434;13.206;2022-11-15T11:47:39;13.75;;;9.32;;
20306;SDS011;10312;52.434;13.206;2022-11-15T11:52:58;13.25;;;9.30;;
20306;SDS011;10312;52.434;13.206;2022-11-15T11:55:34;15.65;;;9.90;;
20306;SDS011;10312;52.434;13.206;2022-11-15T11:58:11;15.15;;;10.00;;
20306;SDS011;10312;52.434;13.206;2022-11-15T12:00:47;18.02;;;9.88;;
20306;SDS011;10312;52.434;13.206;2022-11-15T12:06:12;15.23;;;9.40;;
20306;SDS011;10312;52.434;13.206;2022-11-15T12:08:56;16.30;;;10.07;;
20306;SDS011;10312;52.434;13.206;2022-11-15T12:14:24;14.65;;;8.95;;
20306;SDS011;10312;52.434;13.206;2022-11-15T12:16:53;15.38;;;9.23;;
20306;SDS011;10312;52.434;13.206;2022-11-15T12:19:21;16.45;;;10.18;;
20306;SDS011;10312;52.434;13.206;2022-11-15T12:24:56;13.10;;;9.38;;
20306;SDS011;10312;52.434;13.206;2022-11-15T12:27:32;14.98;;;9.15;;
20306;SDS011;10312;52.434;13.206;2022-11-15T12:30:00;16.40;;;9.15;;
20306;SDS011;10312;52.434;13.206;2022-11-15T12:32:38;14.32;;;9.02;;
20306;SDS011;10312;52.434;13.206;2022-11-15T12:35:06;13.60;;;8.82;;
20306;SDS011;10312;52.434;13.206;2022-11-15T12:37:53;17.77;;;8.88;;
20306;SDS011;10312;52.434;13.206;2022-11-15T12:40:25;13.48;;;8.85;;
20306;SDS011;10312;52.434;13.206;2022-11-15T12:45:43;14.73;;;8.52;;
20306;SDS011;10312;52.434;13.206;2022-11-15T12:50:56;13.13;;;8.07;;
20306;SDS011;10312;52.434;13.206;2022-11-15T12:56:08;11.90;;;7.13;;
20306;SDS011;10312;52.434;13.206;2022-11-15T13:06:50;13.65;;;8.38;;
20306;SDS011;10312;52.434;13.206;2022-11-15T13:11:55;12.35;;;7.55;;
20306;SDS011;10312;52.434;13.206;2022-11-15T13:14:45;12.13;;;6.88;;
20306;SDS011;10312;52.434;13.206;2022-11-15T13:22:43;11.40;;;7.15;;
20306;SDS011;10312;52.434;13.206;2022-11-15T13:27:50;11.77;;;7.80;;
20306;SDS011;10312;52.434;13.206;2022-11-15T13:30:21;9.70;;;6.68;;
20306;SDS011;10312;52.434;13.206;2022-11-15T13:32:52;12.02;;;7.13;;
20306;SDS011;10312;52.434;13.206;2022-11-15T13:35:20;11.60;;;7.40;;
20306;SDS011;10312;52.434;13.206;2022-11-15T13:37:49;10.35;;;7.00;;
20306;SDS011;10312;52.434;13.206;2022-11-15T13:42:59;9.70;;;6.80;;
20306;SDS011;10312;52.434;13.206;2022-11-15T13:45:26;13.52;;;6.90;;
20306;SDS011;10312;52.434;13.206;2022-11-15T13:47:54;12.57;;;7.75;;
20306;SDS011;10312;52.434;13.206;2022-11-15T13:50:27;11.57;;;7.18;;
20306;SDS011;10312;52.434;13.206;2022-11-15T13:52:57;10.90;;;6.68;;
20306;SDS011;10312;52.434;13.206;2022-11-15T13:55:25;11.90;;;7.85;;
20306;SDS011;10312;52.434;13.206;2022-11-15T13:57:59;14.35;;;7.95;;
20306;SDS011;10312;52.434;13.206;2022-11-15T14:00:38;12.10;;;7.72;;
20306;SDS011;10312;52.434;13.206;2022-11-15T14:05:46;19.67;;;8.15;;
20306;SDS011;10312;52.434;13.206;2022-11-15T14:08:39;15.55;;;7.28;;
20306;SDS011;10312;52.434;13.206;2022-11-15T14:11:17;13.98;;;6.70;;
20306;SDS011;10312;52.434;13.206;2022-11-15T14:14:03;17.83;;;8.25;;
20306;SDS011;10312;52.434;13.206;2022-11-15T14:16:44;14.85;;;7.00;;
20306;SDS011;10312;52.434;13.206;2022-11-15T14:22:07;13.05;;;7.07;;
20306;SDS011;10312;52.434;13.206;2022-11-15T14:24:34;11.73;;;7.00;;
20306;SDS011;10312;52.434;13.206;2022-11-15T14:29:51;11.13;;;7.20;;
20306;SDS011;10312;52.434;13.206;2022-11-15T14:32:26;12.02;;;7.45;;
20306;SDS011;10312;52.434;13.206;2022-11-15T14:34:56;15.15;;;7.47;;
20306;SDS011;10312;52.434;13.206;2022-11-15T14:37:25;11.82;;;7.10;;
20306;SDS011;10312;52.434;13.206;2022-11-15T14:40:03;14.05;;;7.75;;
20306;SDS011;10312;52.434;13.206;2022-11-15T14:42:32;12.45;;;7.25;;
20306;SDS011;10312;52.434;13.206;2022-11-15T14:45:01;10.60;;;6.85;;
20306;SDS011;10312;52.434;13.206;2022-11-15T14:47:27;12.68;;;7.57;;
20306;SDS011;10312;52.434;13.206;2022-11-15T14:49:54;10.65;;;6.70;;
20306;SDS011;10312;52.434;13.206;2022-11-15T14:52:31;11.57;;;6.95;;
20306;SDS011;10312;52.434;13.206;2022-11-15T14:55:03;10.93;;;6.93;;
20306;SDS011;10312;52.434;13.206;2022-11-15T14:57:35;11.50;;;7.65;;
20306;SDS011;10312;52.434;13.206;2022-11-15T15:00:02;13.70;;;8.30;;
20306;SDS011;10312;52.434;13.206;2022-11-15T15:02:39;13.43;;;8.98;;
20306;SDS011;10312;52.434;13.206;2022-11-15T15:05:29;12.60;;;8.20;;
20306;SDS011;10312;52.434;13.206;2022-11-15T15:07:57;14.73;;;8.57;;
20306;SDS011;10312;52.434;13.206;2022-11-15T15:10:25;16.00;;;7.97;;
20306;SDS011;10312;52.434;13.206;2022-11-15T15:15:49;18.00;;;8.73;;
20306;SDS011;10312;52.434;13.206;2022-11-15T15:18:17;13.82;;;8.50;;
20306;SDS011;10312;52.434;13.206;2022-11-15T15:20:47;13.38;;;7.88;;
20306;SDS011;10312;52.434;13.206;2022-11-15T15:23:19;12.05;;;8.18;;
20306;SDS011;10312;52.434;13.206;2022-11-15T15:25:47;12.77;;;8.15;;
20306;SDS011;10312;52.434;13.206;2022-11-15T15:28:15;16.92;;;8.27;;
20306;SDS011;10312;52.434;13.206;2022-11-15T15:30:42;14.82;;;9.02;;
20306;SDS011;10312;52.434;13.206;2022-11-15T15:33:09;15.60;;;8.85;;
20306;SDS011;10312;52.434;13.206;2022-11-15T15:35:36;12.73;;;8.38;;
20306;SDS011;10312;52.434;13.206;2022-11-15T15:38:03;15.05;;;8.90;;
20306;SDS011;10312;52.434;13.206;2022-11-15T15:40:31;13.75;;;8.93;;
20306;SDS011;10312;52.434;13.206;2022-11-15T15:42:59;15.25;;;8.80;;
20306;SDS011;10312;52.434;13.206;2022-11-15T15:45:26;17.15;;;10.07;;
20306;SDS011;10312;52.434;13.206;2022-11-15T15:47:54;15.63;;;10.23;;
20306;SDS011;10312;52.434;13.206;2022-11-15T15:50:28;17.75;;;9.95;;
20306;SDS011;10312;52.434;13.206;2022-11-15T15:52:57;14.63;;;9.88;;
20306;SDS011;10312;52.434;13.206;2022-11-15T15:55:25;16.88;;;9.52;;
20306;SDS011;10312;52.434;13.206;2022-11-15T15:57:52;16.52;;;9.68;;
20306;SDS011;10312;52.434;13.206;2022-11-15T16:00:20;18.05;;;9.88;;
20306;SDS011;10312;52.434;13.206;2022-11-15T16:02:49;16.80;;;10.25;;
20306;SDS011;10312;52.434;13.206;2022-11-15T16:05:16;16.70;;;9.95;;
20306;SDS011;10312;52.434;13.206;2022-11-15T16:07:44;19.92;;;11.05;;
20306;SDS011;10312;52.434;13.206;2022-11-15T16:12:48;17.63;;;11.07;;
20306;SDS011;10312;52.434;13.206;2022-11-15T16:15:15;17.27;;;11.15;;
20306;SDS011;10312;52.434;13.206;2022-11-15T16:18:16;19.40;;;10.93;;
20306;SDS011;10312;52.434;13.206;2022-11-15T16:23:09;19.60;;;11.15;;
20306;SDS011;10312;52.434;13.206;2022-11-15T16:25:38;16.27;;;10.75;;
20306;SDS011;10312;52.434;13.206;2022-11-15T16:28:12;20.85;;;11.20;;
20306;SDS011;10312;52.434;13.206;2022-11-15T16:30:42;20.27;;;11.30;;
20306;SDS011;10312;52.434;13.206;2022-11-15T16:33:09;18.67;;;11.68;;
20306;SDS011;10312;52.434;13.206;2022-11-15T16:35:36;15.85;;;10.52;;
20306;SDS011;10312;52.434;13.206;2022-11-15T16:38:02;18.02;;;11.60;;
20306;SDS011;10312;52.434;13.206;2022-11-15T16:40:30;18.92;;;11.98;;
20306;SDS011;10312;52.434;13.206;2022-11-15T16:42:58;18.60;;;12.00;;
20306;SDS011;10312;52.434;13.206;2022-11-15T16:45:28;22.20;;;11.82;;
20306;SDS011;10312;52.434;13.206;2022-11-15T16:47:55;21.20;;;12.18;;
20306;SDS011;10312;52.434;13.206;2022-11-15T16:50:23;20.95;;;12.45;;
20306;SDS011;10312;52.434;13.206;2022-11-15T16:52:52;18.33;;;11.32;;
20306;SDS011;10312;52.434;13.206;2022-11-15T16:55:20;17.80;;;12.15;;
20306;SDS011;10312;52.434;13.206;2022-11-15T16:57:48;20.80;;;12.80;;
20306;SDS011;10312;52.434;13.206;2022-11-15T17:00:15;23.40;;;13.20;;
20306;SDS011;10312;52.434;13.206;2022-11-15T17:02:43;19.80;;;12.63;;
20306;SDS011;10312;52.434;13.206;2022-11-15T17:05:15;20.33;;;12.55;;
20306;SDS011;10312;52.434;13.206;2022-11-15T17:07:46;22.15;;;13.35;;
20306;SDS011;10312;52.434;13.206;2022-11-15T17:10:23;19.95;;;13.05;;
20306;SDS011;10312;52.434;13.206;2022-11-15T17:12:51;19.13;;;12.35;;
20306;SDS011;10312;52.434;13.206;2022-11-15T17:15:18;20.15;;;13.27;;
20306;SDS011;10312;52.434;13.206;2022-11-15T17:17:50;19.83;;;12.70;;
20306;SDS011;10312;52.434;13.206;2022-11-15T17:20:19;19.48;;;12.82;;
20306;SDS011;10312;52.434;13.206;2022-11-15T17:22:50;25.27;;;13.55;;
20306;SDS011;10312;52.434;13.206;2022-11-15T17:25:18;19.73;;;12.68;;
20306;SDS011;10312;52.434;13.206;2022-11-15T17:27:45;22.65;;;13.07;;
20306;SDS011;10312;52.434;13.206;2022-11-15T17:30:12;22.30;;;12.82;;
20306;SDS011;10312;52.434;13.206;2022-11-15T17:32:41;20.52;;;12.55;;
20306;SDS011;10312;52.434;13.206;2022-11-15T17:35:09;22.10;;;12.85;;
20306;SDS011;10312;52.434;13.206;2022-11-15T17:37:41;21.30;;;12.80;;
20306;SDS011;10312;52.434;13.206;2022-11-15T17:40:08;19.63;;;13.20;;
20306;SDS011;10312;52.434;13.206;2022-11-15T17:42:36;23.08;;;13.63;;
20306;SDS011;10312;52.434;13.206;2022-11-15T17:45:04;22.58;;;13.45;;
20306;SDS011;10312;52.434;13.206;2022-11-15T17:47:35;21.60;;;13.77;;
20306;SDS011;10312;52.434;13.206;2022-11-15T17:50:02;23.35;;;13.30;;
20306;SDS011;10312;52.434;13.206;2022-11-15T17:52:29;23.48;;;13.15;;
20306;SDS011;10312;52.434;13.206;2022-11-15T17:54:56;23.48;;;14.25;;
20306;SDS011;10312;52.434;13.206;2022-11-15T17:57:23;21.25;;;14.48;;
20306;SDS011;10312;52.434;13.206;2022-11-15T17:59:50;23.38;;;14.32;;
20306;SDS011;10312;52.434;13.206;2022-11-15T18:02:17;26.85;;;16.63;;
20306;SDS011;10312;52.434;13.206;2022-11-15T18:04:45;24.83;;;16.27;;
20306;SDS011;10312;52.434;13.206;2022-11-15T18:07:12;23.52;;;15.23;;